createdAt,value
2018-11-01T00:00:08.293Z,63.50
2018-11-01T00:02:10.301Z,63.50
2018-11-01T00:04:12.289Z,63.50
2018-11-01T00:06:14.392Z,63.50
2018-11-01T00:08:16.362Z,63.40
2018-11-01T00:10:18.398Z,63.40
2018-11-01T00:12:20.426Z,63.50
2018-11-01T00:14:22.414Z,63.50
2018-11-01T00:16:24.412Z,63.50
2018-11-01T00:18:26.421Z,63.40
2018-11-01T00:20:28.404Z,63.50
2018-11-01T00:22:30.421Z,63.50
2018-11-01T00:24:32.399Z,63.50
2018-11-01T00:26:34.408Z,63.50
2018-11-01T00:28:36.429Z,63.50
2018-11-01T00:30:38.453Z,63.50
2018-11-01T00:32:40.459Z,63.50
2018-11-01T00:34:42.483Z,63.50
2018-11-01T00:36:44.458Z,63.50
2018-11-01T00:38:46.446Z,63.40
2018-11-01T00:40:48.458Z,63.50
2018-11-01T00:42:50.536Z,63.40
2018-11-01T00:44:52.565Z,63.50
2018-11-01T00:46:54.574Z,63.50
2018-11-01T00:48:56.595Z,63.40
2018-11-01T00:50:58.572Z,63.50
2018-11-01T00:53:00.572Z,63.50
2018-11-01T00:55:02.573Z,63.50
2018-11-01T00:57:04.602Z,63.50
2018-11-01T00:59:06.584Z,63.60
2018-11-01T01:01:08.614Z,63.60
2018-11-01T01:03:10.600Z,63.60
2018-11-01T01:05:12.613Z,63.70
2018-11-01T01:07:14.689Z,63.70
2018-11-01T01:09:16.615Z,63.70
2018-11-01T01:11:18.664Z,63.60
2018-11-01T01:13:20.658Z,63.60
2018-11-01T01:15:22.650Z,63.70
2018-11-01T01:17:24.660Z,63.70
2018-11-01T01:19:26.655Z,63.80
2018-11-01T01:21:28.701Z,63.80
2018-11-01T01:23:30.693Z,63.80
2018-11-01T01:25:32.646Z,63.80
2018-11-01T01:27:34.688Z,63.80
2018-11-01T01:29:36.680Z,63.80
2018-11-01T01:31:38.696Z,63.90
2018-11-01T01:33:40.678Z,63.80
2018-11-01T01:35:42.674Z,63.90
2018-11-01T01:37:44.734Z,63.90
2018-11-01T01:39:46.724Z,64.80
2018-11-01T01:41:48.713Z,63.90
2018-11-01T01:43:50.733Z,63.90
2018-11-01T01:45:52.721Z,63.90
2018-11-01T01:47:54.735Z,63.90
2018-11-01T01:49:56.713Z,63.90
2018-11-01T01:51:58.736Z,64.20
2018-11-01T01:54:00.727Z,63.90
2018-11-01T01:56:02.708Z,64.00
2018-11-01T01:58:04.709Z,64.00
2018-11-01T02:00:06.690Z,64.00
2018-11-01T02:02:08.668Z,64.00
2018-11-01T02:04:10.689Z,63.90
2018-11-01T02:06:12.666Z,64.00
2018-11-01T02:08:14.679Z,64.00
2018-11-01T02:10:16.703Z,64.90
2018-11-01T02:12:18.701Z,64.00
2018-11-01T02:14:20.725Z,63.90
2018-11-01T02:16:22.704Z,64.00
2018-11-01T02:18:24.761Z,64.00
2018-11-01T02:20:26.744Z,63.90
2018-11-01T02:22:28.740Z,63.90
2018-11-01T02:24:30.761Z,63.90
2018-11-01T02:26:32.749Z,64.00
2018-11-01T02:28:34.914Z,64.00
2018-11-01T02:30:36.940Z,64.00
2018-11-01T02:32:38.936Z,64.00
2018-11-01T02:34:40.969Z,64.00
2018-11-01T02:36:42.951Z,64.00
2018-11-01T02:38:44.993Z,64.00
2018-11-01T02:40:46.958Z,64.00
2018-11-01T02:42:48.989Z,64.00
2018-11-01T02:44:50.981Z,64.10
2018-11-01T02:46:52.960Z,64.10
2018-11-01T02:48:54.988Z,64.10
2018-11-01T02:50:57.968Z,64.10
2018-11-01T02:52:59.983Z,64.10
2018-11-01T02:55:01.998Z,64.10
2018-11-01T02:57:04.017Z,63.30
2018-11-01T02:59:06.009Z,64.10
2018-11-01T03:01:08.052Z,64.20
2018-11-01T03:03:10.023Z,64.20
2018-11-01T03:05:12.045Z,64.20
2018-11-01T03:07:14.074Z,64.20
2018-11-01T03:09:16.095Z,64.20
2018-11-01T03:11:18.152Z,64.30
2018-11-01T03:13:20.198Z,64.30
2018-11-01T03:15:22.174Z,64.30
2018-11-01T03:17:24.166Z,65.20
2018-11-01T03:19:26.184Z,64.30
2018-11-01T03:21:28.251Z,65.10
2018-11-01T03:23:30.203Z,64.30
2018-11-01T03:25:32.193Z,64.30
2018-11-01T03:27:34.166Z,64.30
2018-11-01T03:29:36.193Z,64.30
2018-11-01T03:31:38.249Z,64.30
2018-11-01T03:33:40.230Z,64.30
2018-11-01T03:35:42.283Z,64.40
2018-11-01T03:37:44.258Z,64.40
2018-11-01T03:39:46.275Z,64.30
2018-11-01T03:41:48.254Z,64.40
2018-11-01T03:43:50.247Z,64.40
2018-11-01T03:45:52.416Z,64.50
2018-11-01T03:47:54.268Z,64.40
2018-11-01T03:49:56.284Z,64.50
2018-11-01T03:51:58.315Z,64.50
2018-11-01T03:54:00.273Z,64.50
2018-11-01T03:56:02.276Z,64.50
2018-11-01T03:58:04.258Z,64.50
2018-11-01T04:00:06.296Z,64.50
2018-11-01T04:02:08.276Z,64.50
2018-11-01T04:04:10.261Z,64.60
2018-11-01T04:06:12.281Z,64.60
2018-11-01T04:08:14.257Z,64.50
2018-11-01T04:10:16.282Z,64.50
2018-11-01T04:12:18.261Z,64.50
2018-11-01T04:14:20.211Z,64.60
2018-11-01T04:16:22.270Z,64.80
2018-11-01T04:18:24.267Z,64.60
2018-11-01T04:20:26.244Z,64.60
2018-11-01T04:22:28.251Z,64.60
2018-11-01T04:24:30.242Z,64.60
2018-11-01T04:26:32.264Z,64.60
2018-11-01T04:28:34.266Z,64.60
2018-11-01T04:30:36.241Z,64.60
2018-11-01T04:32:38.264Z,64.60
2018-11-01T04:34:40.286Z,64.60
2018-11-01T04:36:42.280Z,64.60
2018-11-01T04:38:44.276Z,64.60
2018-11-01T04:40:46.392Z,64.60
2018-11-01T04:42:48.291Z,64.60
2018-11-01T04:44:50.275Z,64.60
2018-11-01T04:46:52.300Z,64.60
2018-11-01T04:48:54.304Z,64.70
2018-11-01T04:50:56.329Z,64.60
2018-11-01T04:52:58.337Z,64.60
2018-11-01T04:55:00.352Z,64.50
2018-11-01T04:57:02.343Z,64.70
2018-11-01T04:59:04.400Z,64.60
2018-11-01T05:01:06.382Z,64.40
2018-11-01T05:03:08.411Z,64.30
2018-11-01T05:05:10.492Z,64.30
2018-11-01T05:07:12.437Z,64.20
2018-11-01T05:09:14.423Z,64.20
2018-11-01T05:11:16.448Z,64.10
2018-11-01T05:13:18.468Z,64.00
2018-11-01T05:15:20.499Z,64.80
2018-11-01T05:17:22.480Z,63.80
2018-11-01T05:19:24.482Z,63.70
2018-11-01T05:21:26.496Z,63.40
2018-11-01T05:23:28.500Z,64.50
2018-11-01T05:25:30.497Z,63.60
2018-11-01T05:27:32.521Z,63.60
2018-11-01T05:29:34.559Z,63.50
2018-11-01T05:31:36.477Z,63.30
2018-11-01T05:33:38.497Z,63.30
2018-11-01T05:35:40.501Z,63.30
2018-11-01T05:37:42.524Z,63.10
2018-11-01T05:39:44.496Z,63.30
2018-11-01T05:41:46.583Z,63.10
2018-11-01T05:43:48.761Z,62.80
2018-11-01T05:45:50.742Z,63.90
2018-11-01T05:47:52.724Z,63.00
2018-11-01T05:49:54.739Z,63.10
2018-11-01T05:51:56.731Z,63.10
2018-11-01T05:53:58.749Z,63.30
2018-11-01T05:56:00.775Z,63.00
2018-11-01T05:58:02.810Z,62.80
2018-11-01T06:00:04.879Z,63.00
2018-11-01T06:02:06.810Z,63.10
2018-11-01T06:04:08.794Z,63.00
2018-11-01T06:06:10.821Z,63.10
2018-11-01T06:08:12.813Z,63.00
2018-11-01T06:10:14.807Z,63.00
2018-11-01T06:12:16.810Z,62.90
2018-11-01T06:14:18.783Z,63.00
2018-11-01T06:16:20.813Z,63.00
2018-11-01T06:18:22.776Z,62.90
2018-11-01T06:20:24.812Z,62.90
2018-11-01T06:22:26.785Z,62.90
2018-11-01T06:24:28.798Z,62.90
2018-11-01T06:26:30.809Z,63.00
2018-11-01T06:28:32.899Z,62.80
2018-11-01T06:30:34.880Z,62.80
2018-11-01T06:32:36.896Z,62.70
2018-11-01T06:34:38.944Z,62.80
2018-11-01T06:36:40.933Z,62.80
2018-11-01T06:38:42.954Z,62.80
2018-11-01T06:40:44.944Z,62.70
2018-11-01T06:42:46.968Z,62.70
2018-11-01T06:44:49.061Z,62.70
2018-11-01T06:46:50.985Z,62.70
2018-11-01T06:48:53.007Z,62.70
2018-11-01T06:50:55.017Z,62.60
2018-11-01T06:52:57.026Z,62.60
2018-11-01T06:54:59.072Z,62.50
2018-11-01T06:57:01.078Z,62.60
2018-11-01T06:59:03.194Z,62.50
2018-11-01T07:01:05.096Z,62.50
2018-11-01T07:03:07.059Z,62.60
2018-11-01T07:05:09.085Z,62.50
2018-11-01T07:07:11.073Z,62.50
2018-11-01T07:09:13.084Z,62.50
2018-11-01T07:11:15.097Z,62.50
2018-11-01T07:13:17.092Z,62.50
2018-11-01T07:15:19.135Z,62.40
2018-11-01T07:17:21.278Z,62.40
2018-11-01T07:19:25.383Z,62.30
2018-11-01T07:21:27.411Z,62.30
2018-11-01T07:23:29.401Z,62.30
2018-11-01T07:25:31.528Z,62.30
2018-11-01T07:27:33.414Z,62.30
2018-11-01T07:29:35.403Z,62.20
2018-11-01T07:31:37.396Z,62.20
2018-11-01T07:33:39.409Z,62.30
2018-11-01T07:35:41.400Z,62.20
2018-11-01T07:37:43.419Z,62.20
2018-11-01T07:39:45.445Z,62.20
2018-11-01T07:41:47.456Z,61.70
2018-11-01T07:43:49.480Z,61.20
2018-11-01T07:45:51.484Z,62.10
2018-11-01T07:47:53.489Z,62.30
2018-11-01T07:49:55.545Z,62.50
2018-11-01T07:51:57.566Z,62.80
2018-11-01T07:53:59.546Z,62.90
2018-11-01T07:56:01.532Z,62.80
2018-11-01T07:58:03.554Z,62.90
2018-11-01T08:00:05.551Z,62.80
2018-11-01T08:02:07.622Z,62.80
2018-11-01T08:04:09.610Z,62.70
2018-11-01T08:06:11.612Z,62.60
2018-11-01T08:08:13.636Z,62.70
2018-11-01T08:10:15.616Z,62.80
2018-11-01T08:12:17.619Z,62.70
2018-11-01T08:14:19.655Z,62.80
2018-11-01T08:16:21.665Z,62.70
2018-11-01T08:18:23.704Z,62.50
2018-11-01T08:20:26.024Z,62.50
2018-11-01T08:22:27.965Z,63.40
2018-11-01T08:24:29.978Z,62.50
2018-11-01T08:26:31.990Z,62.50
2018-11-01T08:28:33.990Z,62.50
2018-11-01T08:30:36.011Z,62.60
2018-11-01T08:32:38.027Z,62.50
2018-11-01T08:34:40.053Z,62.60
2018-11-01T08:36:42.117Z,62.30
2018-11-01T08:38:44.100Z,62.40
2018-11-01T08:40:46.128Z,62.60
2018-11-01T08:42:48.153Z,63.60
2018-11-01T08:44:50.151Z,64.40
2018-11-01T08:46:52.143Z,64.50
2018-11-01T08:48:54.141Z,64.30
2018-11-01T08:50:56.127Z,64.50
2018-11-01T08:52:58.150Z,64.50
2018-11-01T08:55:00.151Z,64.50
2018-11-01T08:57:02.120Z,64.60
2018-11-01T08:59:04.140Z,64.50
2018-11-01T09:01:06.134Z,64.70
2018-11-01T09:03:08.145Z,64.70
2018-11-01T09:05:10.135Z,64.80
2018-11-01T09:07:12.157Z,65.00
2018-11-01T09:09:14.134Z,65.00
2018-11-01T09:11:16.104Z,65.10
2018-11-01T09:13:18.163Z,65.00
2018-11-01T09:15:20.129Z,65.40
2018-11-01T09:17:22.170Z,66.30
2018-11-01T09:19:24.242Z,67.40
2018-11-01T09:21:26.164Z,67.70
2018-11-01T09:23:28.158Z,67.40
2018-11-01T09:25:30.185Z,67.60
2018-11-01T09:27:32.162Z,67.60
2018-11-01T09:29:34.196Z,67.20
2018-11-01T09:31:36.192Z,67.10
2018-11-01T09:33:38.165Z,66.90
2018-11-01T09:35:40.263Z,67.10
2018-11-01T09:37:42.213Z,66.80
2018-11-01T09:39:44.213Z,66.70
2018-11-01T09:41:46.206Z,66.50
2018-11-01T09:43:48.229Z,66.90
2018-11-01T09:45:50.314Z,66.40
2018-11-01T09:47:52.516Z,66.90
2018-11-01T09:49:54.276Z,55.00
2018-11-01T09:51:56.361Z,58.20
2018-11-01T09:53:58.424Z,61.80
2018-11-01T09:56:00.443Z,65.30
2018-11-01T09:58:02.497Z,67.10
2018-11-01T10:00:04.470Z,68.50
2018-11-01T10:02:06.525Z,67.10
2018-11-01T10:04:08.502Z,66.20
2018-11-01T10:06:10.529Z,64.50
2018-11-01T10:08:12.528Z,64.40
2018-11-01T10:10:14.561Z,64.00
2018-11-01T10:12:16.570Z,63.50
2018-11-01T10:14:18.519Z,63.30
2018-11-01T10:16:20.724Z,54.50
2018-11-01T10:18:22.891Z,58.10
2018-11-01T10:20:24.518Z,62.20
2018-11-01T10:22:26.630Z,64.30
2018-11-01T10:24:28.542Z,67.70
2018-11-01T10:26:30.503Z,68.00
2018-11-01T10:28:32.493Z,67.10
2018-11-01T10:30:34.480Z,65.30
2018-11-01T10:32:36.438Z,64.20
2018-11-01T10:34:38.441Z,63.00
2018-11-01T10:36:40.419Z,62.60
2018-11-01T10:38:42.421Z,63.60
2018-11-01T10:40:44.519Z,62.60
2018-11-01T10:42:46.458Z,62.30
2018-11-01T10:44:48.427Z,62.60
2018-11-01T10:46:50.573Z,62.30
2018-11-01T10:48:52.545Z,62.50
2018-11-01T10:50:54.607Z,62.60
2018-11-01T10:52:56.601Z,62.60
2018-11-01T10:54:58.586Z,62.50
2018-11-01T10:57:00.637Z,62.70
2018-11-01T10:59:02.616Z,62.70
2018-11-01T11:01:05.095Z,62.70
2018-11-01T11:03:07.089Z,62.80
2018-11-01T11:05:09.066Z,62.80
2018-11-01T11:07:11.079Z,63.80
2018-11-01T11:09:13.108Z,63.00
2018-11-01T11:11:15.103Z,62.80
2018-11-01T11:13:17.110Z,62.70
2018-11-01T11:15:19.095Z,63.00
2018-11-01T11:17:21.089Z,62.90
2018-11-01T11:19:23.129Z,63.00
2018-11-01T11:21:25.153Z,63.00
2018-11-01T11:23:27.147Z,62.90
2018-11-01T11:25:29.153Z,63.10
2018-11-01T11:27:31.329Z,63.00
2018-11-01T11:29:33.287Z,63.00
2018-11-01T11:31:35.315Z,63.00
2018-11-01T11:33:37.303Z,63.00
2018-11-01T11:35:39.300Z,63.10
2018-11-01T11:37:41.319Z,63.10
2018-11-01T11:39:43.391Z,64.00
2018-11-01T11:41:45.381Z,63.00
2018-11-01T11:43:47.413Z,63.00
2018-11-01T11:45:49.395Z,63.10
2018-11-01T11:47:51.382Z,63.00
2018-11-01T11:49:53.405Z,63.00
2018-11-01T11:51:55.405Z,63.00
2018-11-01T11:53:57.409Z,63.00
2018-11-01T11:55:59.393Z,62.90
2018-11-01T11:58:01.405Z,63.00
2018-11-01T12:00:03.407Z,63.10
2018-11-01T12:02:05.438Z,63.10
2018-11-01T12:04:07.468Z,63.00
2018-11-01T12:06:09.592Z,62.90
2018-11-01T12:08:11.497Z,63.00
2018-11-01T12:10:13.503Z,62.90
2018-11-01T12:12:15.517Z,63.00
2018-11-01T12:14:17.595Z,63.00
2018-11-01T12:16:19.523Z,62.90
2018-11-01T12:18:21.510Z,63.00
2018-11-01T12:20:23.515Z,63.00
2018-11-01T12:22:25.642Z,63.00
2018-11-01T12:24:27.585Z,63.00
2018-11-01T12:26:29.557Z,62.80
2018-11-01T12:28:31.645Z,62.80
2018-11-01T12:30:33.564Z,63.80
2018-11-01T12:32:35.532Z,62.80
2018-11-01T12:34:37.542Z,62.70
2018-11-01T12:36:39.522Z,62.60
2018-11-01T12:38:41.505Z,62.50
2018-11-01T12:40:43.513Z,62.70
2018-11-01T12:42:45.481Z,62.70
2018-11-01T12:44:47.470Z,62.70
2018-11-01T12:46:49.446Z,62.60
2018-11-01T12:48:51.494Z,62.60
2018-11-01T12:50:53.476Z,62.60
2018-11-01T12:52:55.449Z,62.60
2018-11-01T12:54:57.546Z,62.70
2018-11-01T12:56:59.501Z,62.70
2018-11-01T12:59:01.543Z,62.80
2018-11-01T13:01:03.512Z,62.80
2018-11-01T13:03:05.497Z,62.60
2018-11-01T13:05:07.509Z,62.70
2018-11-01T13:07:09.544Z,62.70
2018-11-01T13:09:11.604Z,62.40
2018-11-01T13:11:13.584Z,62.10
2018-11-01T13:13:15.599Z,62.20
2018-11-01T13:15:17.592Z,62.20
2018-11-01T13:17:19.595Z,62.00
2018-11-01T13:19:21.737Z,62.10
2018-11-01T13:21:23.703Z,62.00
2018-11-01T13:23:25.697Z,62.00
2018-11-01T13:25:27.684Z,61.90
2018-11-01T13:27:30.575Z,61.80
2018-11-01T13:29:32.537Z,61.80
2018-11-01T13:31:34.548Z,61.80
2018-11-01T13:33:36.556Z,61.60
2018-11-01T13:35:38.541Z,61.60
2018-11-01T13:37:40.522Z,61.60
2018-11-01T13:39:42.608Z,61.70
2018-11-01T13:41:44.628Z,61.70
2018-11-01T13:43:46.540Z,61.50
2018-11-01T13:45:48.520Z,61.50
2018-11-01T13:47:50.672Z,61.50
2018-11-01T13:49:52.520Z,61.50
2018-11-01T13:51:54.498Z,61.50
2018-11-01T13:53:56.517Z,61.50
2018-11-01T13:55:58.560Z,61.50
2018-11-01T13:58:00.534Z,61.60
2018-11-01T14:00:02.549Z,61.50
2018-11-01T14:02:04.525Z,61.30
2018-11-01T14:04:06.508Z,61.40
2018-11-01T14:06:08.566Z,61.30
2018-11-01T14:08:10.520Z,61.10
2018-11-01T14:10:12.528Z,61.00
2018-11-01T14:12:14.516Z,61.10
2018-11-01T14:14:16.809Z,61.20
2018-11-01T14:16:18.529Z,61.20
2018-11-01T14:18:20.520Z,61.20
2018-11-01T14:20:22.546Z,61.20
2018-11-01T14:22:24.553Z,61.10
2018-11-01T14:24:26.560Z,60.90
2018-11-01T14:26:28.551Z,61.00
2018-11-01T14:28:30.537Z,61.10
2018-11-01T14:30:32.574Z,61.10
2018-11-01T14:32:34.560Z,61.20
2018-11-01T14:34:36.539Z,61.20
2018-11-01T14:36:38.573Z,61.30
2018-11-01T14:38:40.561Z,61.40
2018-11-01T14:40:42.580Z,61.20
2018-11-01T14:42:44.620Z,61.20
2018-11-01T14:44:46.654Z,61.30
2018-11-01T14:46:48.644Z,61.20
2018-11-01T14:48:50.644Z,61.30
2018-11-01T14:50:52.661Z,61.30
2018-11-01T14:52:54.824Z,61.30
2018-11-01T14:54:57.622Z,61.50
2018-11-01T14:57:00.478Z,61.20
2018-11-01T14:59:01.898Z,61.50
2018-11-01T15:01:02.740Z,61.60
2018-11-01T15:03:04.708Z,61.50
2018-11-01T15:05:06.708Z,61.50
2018-11-01T15:07:08.726Z,61.50
2018-11-01T15:09:10.728Z,61.50
2018-11-01T15:11:12.760Z,61.30
2018-11-01T15:13:14.850Z,58.60
2018-11-01T15:15:16.749Z,63.80
2018-11-01T15:17:18.744Z,70.00
2018-11-01T15:19:20.768Z,73.10
2018-11-01T15:21:22.756Z,73.80
2018-11-01T15:23:24.766Z,70.00
2018-11-01T15:25:26.748Z,66.40
2018-11-01T15:27:28.749Z,64.60
2018-11-01T15:29:30.744Z,63.30
2018-11-01T15:31:32.780Z,62.30
2018-11-01T15:33:34.926Z,62.00
2018-11-01T15:35:36.860Z,61.50
2018-11-01T15:37:39.004Z,61.30
2018-11-01T15:39:40.937Z,61.20
2018-11-01T15:41:42.869Z,61.20
2018-11-01T15:43:44.891Z,61.00
2018-11-01T15:45:46.920Z,61.00
2018-11-01T15:47:48.937Z,61.10
2018-11-01T15:49:50.989Z,61.00
2018-11-01T15:51:53.060Z,61.10
2018-11-01T15:53:55.006Z,61.00
2018-11-01T15:55:57.002Z,61.00
2018-11-01T15:57:59.050Z,61.00
2018-11-01T16:00:01.061Z,60.90
2018-11-01T16:02:03.054Z,60.80
2018-11-01T16:04:05.110Z,60.90
2018-11-01T16:06:07.075Z,60.90
2018-11-01T16:08:09.561Z,60.90
2018-11-01T16:10:11.767Z,60.80
2018-11-01T16:12:13.605Z,60.80
2018-11-01T16:14:15.633Z,60.80
2018-11-01T16:16:17.633Z,61.00
2018-11-01T16:18:19.599Z,60.90
2018-11-01T16:20:21.715Z,60.90
2018-11-01T16:22:23.864Z,60.90
2018-11-01T16:24:25.855Z,60.90
2018-11-01T16:26:27.896Z,60.90
2018-11-01T16:28:29.978Z,60.90
2018-11-01T16:30:31.961Z,58.70
2018-11-01T16:32:33.973Z,60.80
2018-11-01T16:34:35.988Z,60.70
2018-11-01T16:36:38.107Z,60.80
2018-11-01T16:38:40.164Z,60.70
2018-11-01T16:40:42.202Z,60.70
2018-11-01T16:42:44.342Z,60.70
2018-11-01T16:44:46.220Z,60.70
2018-11-01T16:46:48.236Z,61.50
2018-11-01T16:48:50.215Z,60.50
2018-11-01T16:50:52.386Z,60.50
2018-11-01T16:52:54.261Z,60.50
2018-11-01T16:54:56.290Z,60.40
2018-11-01T16:56:58.270Z,60.40
2018-11-01T16:59:00.272Z,60.20
2018-11-01T17:01:02.311Z,60.40
2018-11-01T17:03:04.366Z,60.30
2018-11-01T17:05:06.361Z,60.40
2018-11-01T17:07:08.349Z,60.50
2018-11-01T17:09:10.379Z,60.40
2018-11-01T17:11:12.412Z,60.50
2018-11-01T17:13:14.398Z,60.50
2018-11-01T17:15:16.508Z,60.50
2018-11-01T17:17:18.460Z,60.50
2018-11-01T17:19:20.445Z,60.40
2018-11-01T17:21:22.460Z,60.40
2018-11-01T17:23:24.448Z,60.50
2018-11-01T17:25:26.469Z,60.40
2018-11-01T17:27:28.503Z,60.40
2018-11-01T17:29:30.542Z,60.40
2018-11-01T17:31:32.511Z,60.40
2018-11-01T17:33:34.546Z,60.30
2018-11-01T17:35:36.583Z,60.40
2018-11-01T17:37:38.613Z,60.30
2018-11-01T17:39:40.593Z,60.50
2018-11-01T17:41:42.625Z,60.40
2018-11-01T17:43:44.657Z,60.30
2018-11-01T17:45:46.683Z,60.30
2018-11-01T17:47:48.734Z,60.40
2018-11-01T17:49:50.720Z,60.40
2018-11-01T17:51:52.749Z,60.40
2018-11-01T17:53:54.768Z,60.20
2018-11-01T17:55:56.752Z,60.30
2018-11-01T17:57:58.894Z,61.30
2018-11-01T18:00:00.887Z,60.30
2018-11-01T18:02:03.229Z,60.20
2018-11-01T18:04:05.281Z,60.30
2018-11-01T18:06:07.268Z,60.00
2018-11-01T18:08:09.347Z,60.00
2018-11-01T18:10:11.279Z,60.00
2018-11-01T18:12:13.305Z,60.00
2018-11-01T18:14:15.385Z,60.00
2018-11-01T18:16:17.344Z,60.00
2018-11-01T18:18:19.347Z,60.20
2018-11-01T18:20:21.368Z,60.00
2018-11-01T18:22:23.378Z,59.90
2018-11-01T18:24:25.407Z,60.50
2018-11-01T18:26:27.751Z,59.80
2018-11-01T18:28:29.748Z,59.60
2018-11-01T18:30:31.764Z,59.70
2018-11-01T18:32:33.883Z,59.40
2018-11-01T18:34:35.845Z,59.40
2018-11-01T18:36:37.814Z,59.50
2018-11-01T18:38:39.802Z,59.40
2018-11-01T18:40:41.833Z,59.50
2018-11-01T18:42:43.842Z,59.60
2018-11-01T18:44:45.821Z,59.40
2018-11-01T18:46:47.837Z,59.40
2018-11-01T18:48:49.879Z,59.40
2018-11-01T18:50:51.883Z,59.40
2018-11-01T18:52:53.928Z,59.30
2018-11-01T18:54:55.931Z,58.70
2018-11-01T18:56:57.914Z,59.20
2018-11-01T18:58:59.958Z,59.20
2018-11-01T19:01:02.053Z,59.20
2018-11-01T19:03:04.032Z,59.10
2018-11-01T19:05:06.377Z,59.10
2018-11-01T19:07:08.677Z,59.20
2018-11-01T19:09:10.697Z,59.20
2018-11-01T19:11:12.790Z,59.40
2018-11-01T19:13:14.808Z,59.20
2018-11-01T19:15:16.899Z,59.20
2018-11-01T19:17:18.827Z,59.20
2018-11-01T19:19:20.857Z,59.20
2018-11-01T19:21:23.208Z,59.30
2018-11-01T19:23:25.232Z,59.30
2018-11-01T19:25:27.280Z,59.10
2018-11-01T19:27:29.486Z,59.20
2018-11-01T19:29:31.292Z,59.10
2018-11-01T19:31:33.270Z,59.10
2018-11-01T19:33:35.443Z,59.20
2018-11-01T19:35:37.461Z,59.10
2018-11-01T19:37:39.440Z,59.10
2018-11-01T19:39:41.445Z,59.10
2018-11-01T19:41:43.438Z,59.00
2018-11-01T19:43:45.470Z,59.10
2018-11-01T19:45:47.451Z,59.00
2018-11-01T19:47:49.427Z,59.00
2018-11-01T19:49:51.507Z,59.00
2018-11-01T19:51:53.433Z,59.10
2018-11-01T19:53:55.515Z,59.00
2018-11-01T19:55:57.486Z,58.90
2018-11-01T19:57:59.478Z,59.10
2018-11-01T20:00:01.484Z,59.00
2018-11-01T20:02:03.520Z,58.90
2018-11-01T20:04:05.620Z,59.00
2018-11-01T20:06:07.811Z,59.00
2018-11-01T20:08:09.867Z,59.00
2018-11-01T20:10:12.308Z,59.00
2018-11-01T20:12:14.287Z,59.10
2018-11-01T20:14:16.487Z,59.00
2018-11-01T20:16:18.457Z,59.00
2018-11-01T20:18:20.734Z,58.90
2018-11-01T20:20:22.715Z,58.90
2018-11-01T20:22:24.764Z,59.00
2018-11-01T20:24:26.734Z,58.90
2018-11-01T20:26:28.715Z,59.00
2018-11-01T20:28:30.742Z,59.10
2018-11-01T20:30:32.763Z,59.10
2018-11-01T20:32:34.810Z,58.90
2018-11-01T20:34:37.041Z,59.30
2018-11-01T20:36:39.019Z,58.80
2018-11-01T20:38:41.077Z,58.90
2018-11-01T20:40:43.088Z,58.90
2018-11-01T20:42:45.120Z,58.90
2018-11-01T20:44:47.093Z,59.00
2018-11-01T20:46:49.095Z,59.10
2018-11-01T20:48:51.084Z,59.00
2018-11-01T20:50:53.082Z,59.00
2018-11-01T20:52:55.093Z,58.80
2018-11-01T20:54:57.068Z,58.90
2018-11-01T20:56:59.077Z,58.90
2018-11-01T20:59:01.068Z,59.00
2018-11-01T21:01:03.054Z,59.00
2018-11-01T21:03:05.062Z,58.90
2018-11-01T21:05:07.192Z,58.90
2018-11-01T21:07:09.089Z,58.90
2018-11-01T21:09:11.107Z,59.00
2018-11-01T21:11:13.171Z,59.00
2018-11-01T21:13:15.080Z,59.10
2018-11-01T21:15:17.090Z,59.10
2018-11-01T21:17:19.137Z,59.00
2018-11-01T21:19:21.512Z,59.10
2018-11-01T21:21:23.962Z,59.00
2018-11-01T21:23:25.966Z,58.90
2018-11-01T21:25:27.955Z,59.00
2018-11-01T21:27:29.962Z,59.60
2018-11-01T21:29:31.941Z,58.80
2018-11-01T21:31:33.944Z,58.70
2018-11-01T21:33:36.357Z,58.80
2018-11-01T21:35:38.386Z,58.80
2018-11-01T21:37:40.407Z,58.70
2018-11-01T21:39:42.397Z,58.70
2018-11-01T21:41:44.385Z,58.60
2018-11-01T21:43:46.399Z,58.40
2018-11-01T21:45:48.383Z,58.50
2018-11-01T21:47:50.441Z,58.30
2018-11-01T21:49:52.418Z,58.20
2018-11-01T21:51:54.443Z,58.20
2018-11-01T21:53:56.436Z,58.20
2018-11-01T21:55:58.426Z,58.00
2018-11-01T21:58:00.437Z,58.10
2018-11-01T22:00:02.346Z,58.10
2018-11-01T22:02:04.144Z,58.60
2018-11-01T22:04:05.926Z,57.70
2018-11-01T22:06:07.782Z,57.30
2018-11-01T22:08:09.571Z,57.00
2018-11-01T22:10:11.361Z,56.90
2018-11-01T22:12:13.165Z,56.90
2018-11-01T22:14:14.980Z,56.80
2018-11-01T22:16:16.770Z,56.10
2018-11-01T22:18:18.606Z,56.70
2018-11-01T22:20:20.387Z,56.80
2018-11-01T22:22:22.203Z,57.00
2018-11-01T22:24:24.002Z,56.80
2018-11-01T22:26:25.845Z,56.70
2018-11-01T22:28:27.729Z,56.90
2018-11-01T22:30:29.533Z,57.30
2018-11-01T22:32:31.365Z,57.40
2018-11-01T22:34:33.140Z,57.80
2018-11-01T22:36:34.927Z,57.80
2018-11-01T22:38:36.757Z,58.00
2018-11-01T22:40:38.541Z,57.80
2018-11-01T22:42:40.354Z,57.80
2018-11-01T22:44:42.130Z,57.80
2018-11-01T22:46:43.906Z,57.70
2018-11-01T22:48:45.721Z,57.90
2018-11-01T22:50:47.504Z,57.90
2018-11-01T22:52:49.274Z,58.00
2018-11-01T22:54:51.108Z,58.00
2018-11-01T22:56:52.893Z,58.10
2018-11-01T22:58:54.709Z,58.20
2018-11-01T23:00:56.530Z,58.30
2018-11-01T23:02:58.344Z,58.30
2018-11-01T23:05:00.153Z,58.20
2018-11-01T23:07:01.996Z,58.10
2018-11-01T23:09:03.790Z,58.20
2018-11-01T23:11:05.583Z,58.30
2018-11-01T23:13:07.386Z,58.30
2018-11-01T23:15:09.222Z,58.40
2018-11-01T23:17:11.020Z,58.40
2018-11-01T23:19:12.837Z,58.40
2018-11-01T23:21:14.637Z,58.40
2018-11-01T23:23:16.447Z,58.60
2018-11-01T23:25:18.261Z,58.50
2018-11-01T23:27:20.027Z,58.70
2018-11-01T23:29:21.828Z,58.70
2018-11-01T23:31:24.305Z,59.40
2018-11-01T23:33:26.065Z,58.70
2018-11-01T23:35:27.892Z,59.50
2018-11-01T23:37:29.692Z,58.70
2018-11-01T23:39:31.489Z,58.80
2018-11-01T23:41:33.302Z,58.60
2018-11-01T23:43:35.080Z,58.70
2018-11-01T23:45:36.995Z,58.60
2018-11-01T23:47:38.774Z,58.70
2018-11-01T23:49:40.625Z,58.70
2018-11-01T23:51:42.750Z,58.50
2018-11-01T23:53:44.528Z,58.50
2018-11-01T23:55:46.309Z,58.40
2018-11-01T23:57:48.130Z,58.60
2018-11-01T23:59:49.960Z,58.50
